< < Back
Terminal Aerodrome Forecast


Current Version              Previous Versions:   1  2  3  4  5  6  7  8  9  

Terminal Aerodrome Forecast

393
FTUS42 KMLB 030250 AAA
TAFMCO
TAF AMD
KMCO 030250Z 0303/0324 VRB02KT P6SM SCT040 BKN250
     FM031300 26007KT P6SM SCT030 SCT250
     FM031900 30006KT P6SM VCTS SCT035CB SCT070=

Latest METAR

013
SAUS70 KWBC 031700 RRC
MTRMCO
METAR KMCO 031653Z 27009KT 10SM SCT038 BKN280 32/23 A2998 RMK AO2 SLP150
T03220228 $


USA.gov is the U.S. government's official web portal to all federal, state and local government web resources and services.